createdAt,value
2023-04-02T00:00:26.331Z,99170.69
2023-04-02T00:00:57.780Z,99174.22
2023-04-02T00:01:32.399Z,99169.28
2023-04-02T00:02:03.975Z,99169.59
2023-04-02T00:02:35.536Z,99172.63
2023-04-02T00:03:07.117Z,99179.69
2023-04-02T00:03:38.654Z,99181.28
2023-04-02T00:04:10.217Z,99176.47
2023-04-02T00:04:41.674Z,99178.06
2023-04-02T00:05:13.139Z,99182.72
2023-04-02T00:05:47.535Z,99188.97
2023-04-02T00:06:19.012Z,99176.97
2023-04-02T00:06:50.596Z,99187.06
2023-04-02T00:07:21.980Z,99184.34
2023-04-02T00:07:53.439Z,99188.69
2023-04-02T00:08:25.064Z,99180.19
2023-04-02T00:08:56.501Z,99188.97
2023-04-02T00:09:27.921Z,99188.38
2023-04-02T00:09:59.404Z,99185.94
2023-04-02T00:10:30.786Z,99192.81
2023-04-02T00:11:02.249Z,99199.09
2023-04-02T00:11:33.676Z,99190.59
2023-04-02T00:12:05.205Z,99199.59
2023-04-02T00:12:36.709Z,99200.38
2023-04-02T00:13:08.136Z,99200.38
2023-04-02T00:13:41.195Z,99195.25
2023-04-02T00:14:12.693Z,99199.88
2023-04-02T00:14:44.085Z,99209.69
2023-04-02T00:15:15.517Z,99212.91
2023-04-02T00:15:46.980Z,99199.59
2023-04-02T00:16:18.457Z,99201.19
2023-04-02T00:16:50.013Z,99202.31
2023-04-02T00:17:21.653Z,99198.78
2023-04-02T00:17:53.256Z,99208.88
2023-04-02T00:18:27.510Z,99211.59
2023-04-02T00:18:59.092Z,99210.00
2023-04-02T00:19:30.532Z,99215.44
2023-04-02T00:20:02.000Z,99207.25
2023-04-02T00:20:33.497Z,99214.03
2023-04-02T00:21:04.919Z,99218.97
2023-04-02T00:21:37.717Z,99229.06
2023-04-02T00:22:10.212Z,99218.16
2023-04-02T00:22:41.699Z,99220.09
2023-04-02T00:23:13.117Z,99213.53
2023-04-02T00:23:44.531Z,99222.81
2023-04-02T00:24:15.983Z,99220.59
2023-04-02T00:24:47.471Z,99218.97
2023-04-02T00:25:18.886Z,99226.66
2023-04-02T00:25:50.280Z,99229.88
2023-04-02T00:26:21.735Z,99235.34
2023-04-02T00:26:53.188Z,99229.06
2023-04-02T00:27:24.736Z,99241.59
2023-04-02T00:27:59.062Z,99229.88
2023-04-02T00:28:30.632Z,99235.34
2023-04-02T00:29:02.074Z,99231.00
2023-04-02T00:29:33.564Z,99242.22
2023-04-02T00:30:04.994Z,99239.78
2023-04-02T00:30:36.425Z,99243.63
2023-04-02T00:31:07.929Z,99235.66
2023-04-02T00:31:39.457Z,99230.19
2023-04-02T00:32:10.927Z,99238.38
2023-04-02T00:32:42.383Z,99249.78
2023-04-02T00:33:13.938Z,99243.00
2023-04-02T00:33:45.429Z,99244.63
2023-04-02T00:34:17.205Z,99247.84
2023-04-02T00:34:48.712Z,99248.97
2023-04-02T00:35:20.136Z,99247.84
2023-04-02T00:35:51.695Z,99251.19
2023-04-02T00:36:23.196Z,99255.03
2023-04-02T00:36:54.658Z,99245.44
2023-04-02T00:37:26.125Z,99251.69
2023-04-02T00:37:57.557Z,99254.13
2023-04-02T00:38:29.033Z,99256.34
2023-04-02T00:39:00.449Z,99254.91
2023-04-02T00:39:31.950Z,99257.97
2023-04-02T00:40:03.390Z,99265.84
2023-04-02T00:40:37.445Z,99263.41
2023-04-02T00:41:08.859Z,99253.63
2023-04-02T00:41:40.341Z,99262.91
2023-04-02T00:42:11.838Z,99263.72
2023-04-02T00:42:43.270Z,99265.31
2023-04-02T00:43:18.665Z,99269.97
2023-04-02T00:43:50.207Z,99269.66
2023-04-02T00:44:21.740Z,99268.06
2023-04-02T00:44:53.337Z,99269.16
2023-04-02T00:45:24.866Z,99267.25
2023-04-02T00:45:56.441Z,99265.63
2023-04-02T00:46:28.003Z,99270.59
2023-04-02T00:46:59.492Z,99276.84
2023-04-02T00:47:30.942Z,99277.34
2023-04-02T00:48:05.276Z,99275.22
2023-04-02T00:48:36.705Z,99274.13
2023-04-02T00:49:08.194Z,99278.78
2023-04-02T00:49:39.647Z,99279.28
2023-04-02T00:50:11.094Z,99276.53
2023-04-02T00:50:42.556Z,99272.69
2023-04-02T00:51:14.064Z,99276.53
2023-04-02T00:51:45.535Z,99278.47
2023-04-02T00:52:17.036Z,99280.38
2023-04-02T00:52:48.460Z,99281.19
2023-04-02T00:53:19.891Z,99280.38
2023-04-02T00:53:51.506Z,99292.09
2023-04-02T00:54:23.064Z,99293.72
2023-04-02T00:54:54.525Z,99292.91
2023-04-02T00:55:26.003Z,99289.38
2023-04-02T00:55:57.451Z,99291.28
2023-04-02T00:56:31.522Z,99294.81
2023-04-02T00:57:03.019Z,99292.09
2023-04-02T00:57:34.480Z,99294.50
2023-04-02T00:58:05.996Z,99296.44
2023-04-02T00:58:37.442Z,99299.16
2023-04-02T00:59:08.886Z,99302.69
2023-04-02T00:59:42.199Z,99310.06
2023-04-02T01:00:13.667Z,99303.81
2023-04-02T01:00:48.107Z,99302.19
2023-04-02T01:01:19.595Z,99301.38
2023-04-02T01:01:51.425Z,99303.00
2023-04-02T01:02:22.961Z,99302.50
2023-04-02T01:02:54.709Z,99309.88
2023-04-02T01:03:26.351Z,99303.00
2023-04-02T01:03:57.944Z,99305.22
2023-04-02T01:04:29.345Z,99306.03
2023-04-02T01:05:00.904Z,99306.66
2023-04-02T01:05:33.054Z,99308.25
2023-04-02T01:06:04.617Z,99312.28
2023-04-02T01:06:38.777Z,99308.75
2023-04-02T01:07:10.235Z,99307.66
2023-04-02T01:07:41.730Z,99309.56
2023-04-02T01:08:13.145Z,99316.63
2023-04-02T01:08:44.604Z,99312.28
2023-04-02T01:09:16.134Z,99313.59
2023-04-02T01:09:47.516Z,99316.13
2023-04-02T01:10:18.993Z,99311.50
2023-04-02T01:10:50.594Z,99320.47
2023-04-02T01:11:21.972Z,99317.25
2023-04-02T01:11:53.426Z,99327.03
2023-04-02T01:12:24.817Z,99322.41
2023-04-02T01:12:56.290Z,99323.19
2023-04-02T01:13:27.697Z,99315.31
2023-04-02T01:13:59.217Z,99323.19
2023-04-02T01:14:30.640Z,99321.59
2023-04-02T01:15:05.305Z,99316.13
2023-04-02T01:15:37.144Z,99325.63
2023-04-02T01:16:08.937Z,99324.81
2023-04-02T01:16:40.472Z,99327.84
2023-04-02T01:17:11.884Z,99320.78
2023-04-02T01:17:43.370Z,99324.63
2023-04-02T01:18:14.805Z,99325.44
2023-04-02T01:18:49.031Z,99331.38
2023-04-02T01:19:20.577Z,99321.88
2023-04-02T01:19:52.003Z,99330.06
2023-04-02T01:20:26.501Z,99325.44
2023-04-02T01:20:57.950Z,99327.34
2023-04-02T01:21:29.374Z,99330.06
2023-04-02T01:22:01.052Z,99330.38
2023-04-02T01:22:32.492Z,99330.56
2023-04-02T01:23:03.900Z,99344.50
2023-04-02T01:23:35.370Z,99329.75
2023-04-02T01:24:09.924Z,99333.59
2023-04-02T01:24:41.352Z,99332.00
2023-04-02T01:25:12.832Z,99336.84
2023-04-02T01:25:44.232Z,99336.03
2023-04-02T01:26:15.796Z,99345.00
2023-04-02T01:26:47.240Z,99342.59
2023-04-02T01:27:18.674Z,99339.88
2023-04-02T01:27:50.097Z,99339.88
2023-04-02T01:28:21.593Z,99348.03
2023-04-02T01:28:53.038Z,99348.53
2023-04-02T01:29:24.466Z,99354.00
2023-04-02T01:29:55.932Z,99348.03
2023-04-02T01:30:27.339Z,99349.97
2023-04-02T01:31:01.074Z,99352.69
2023-04-02T01:31:32.665Z,99353.81
2023-04-02T01:32:04.222Z,99353.50
2023-04-02T01:32:35.718Z,99358.66
2023-04-02T01:33:07.307Z,99359.75
2023-04-02T01:33:38.798Z,99354.31
2023-04-02T01:34:13.117Z,99366.03
2023-04-02T01:34:44.547Z,99357.34
2023-04-02T01:35:15.935Z,99365.81
2023-04-02T01:35:47.405Z,99360.38
2023-04-02T01:36:21.930Z,99364.22
2023-04-02T01:36:53.467Z,99362.28
2023-04-02T01:37:24.945Z,99370.47
2023-04-02T01:37:56.386Z,99370.47
2023-04-02T01:38:27.860Z,99365.00
2023-04-02T01:38:59.303Z,99371.28
2023-04-02T01:39:30.752Z,99366.94
2023-04-02T01:40:07.591Z,99372.88
2023-04-02T01:40:38.990Z,99363.09
2023-04-02T01:41:10.450Z,99376.72
2023-04-02T01:41:41.834Z,99378.34
2023-04-02T01:42:13.288Z,99376.13
2023-04-02T01:42:44.926Z,99385.72
2023-04-02T01:43:16.358Z,99383.28
2023-04-02T01:43:47.831Z,99384.91
2023-04-02T01:44:19.261Z,99386.31
2023-04-02T01:44:50.678Z,99381.38
2023-04-02T01:45:22.103Z,99393.38
2023-04-02T01:45:53.530Z,99387.63
2023-04-02T01:46:25.058Z,99387.63
2023-04-02T01:46:56.532Z,99390.34
2023-04-02T01:47:28.067Z,99388.75
2023-04-02T01:47:59.618Z,99389.84
2023-04-02T01:48:31.112Z,99395.00
2023-04-02T01:49:02.546Z,99394.50
2023-04-02T01:49:34.044Z,99392.88
2023-04-02T01:50:08.515Z,99397.53
2023-04-02T01:50:39.943Z,99388.25
2023-04-02T01:51:11.370Z,99393.69
2023-04-02T01:51:42.821Z,99398.03
2023-04-02T01:52:14.289Z,99399.16
2023-04-02T01:52:45.812Z,99397.53
2023-04-02T01:53:17.306Z,99404.59
2023-04-02T01:53:48.802Z,99405.19
2023-04-02T01:54:20.397Z,99402.47
2023-04-02T01:54:51.805Z,99402.97
2023-04-02T01:55:23.295Z,99405.72
2023-04-02T01:55:54.756Z,99413.06
2023-04-02T01:56:26.182Z,99410.34
2023-04-02T01:56:57.778Z,99405.72
2023-04-02T01:57:29.369Z,99398.34
2023-04-02T01:58:00.922Z,99403.78
2023-04-02T01:58:32.585Z,99408.63
2023-04-02T01:59:04.033Z,99410.84
2023-04-02T01:59:37.896Z,99406.22
2023-04-02T02:00:09.329Z,99415.72
2023-04-02T02:00:40.691Z,99416.00
2023-04-02T02:01:12.199Z,99413.59
2023-04-02T02:01:43.751Z,99417.13
2023-04-02T02:02:15.271Z,99419.84
2023-04-02T02:02:46.838Z,99424.19
2023-04-02T02:03:18.445Z,99415.50
2023-04-02T02:03:49.989Z,99414.38
2023-04-02T02:04:24.200Z,99419.03
2023-04-02T02:04:55.735Z,99423.69
2023-04-02T02:05:27.248Z,99416.81
2023-04-02T02:05:58.749Z,99428.84
2023-04-02T02:06:30.180Z,99425.81
2023-04-02T02:07:03.231Z,99422.28
2023-04-02T02:07:35.019Z,99428.84
2023-04-02T02:08:06.542Z,99422.28
2023-04-02T02:08:38.060Z,99437.50
2023-04-02T02:09:09.509Z,99428.84
2023-04-02T02:09:43.514Z,99432.38
2023-04-02T02:10:14.945Z,99433.97
2023-04-02T02:10:46.346Z,99433.19
2023-04-02T02:11:17.826Z,99439.44
2023-04-02T02:11:49.344Z,99436.72
2023-04-02T02:12:20.798Z,99435.91
2023-04-02T02:12:52.215Z,99440.84
2023-04-02T02:13:23.620Z,99438.13
2023-04-02T02:13:55.127Z,99437.81
2023-04-02T02:14:26.538Z,99430.44
2023-04-02T02:14:57.999Z,99437.81
2023-04-02T02:15:29.437Z,99448.22
2023-04-02T02:16:01.008Z,99441.66
2023-04-02T02:16:32.551Z,99447.41
2023-04-02T02:17:03.994Z,99454.78
2023-04-02T02:17:35.520Z,99444.38
2023-04-02T02:18:09.585Z,99448.22
2023-04-02T02:18:41.046Z,99448.22
2023-04-02T02:19:12.955Z,99454.19
2023-04-02T02:19:44.370Z,99450.94
2023-04-02T02:20:15.980Z,99447.41
2023-04-02T02:20:47.414Z,99453.97
2023-04-02T02:21:18.897Z,99455.09
2023-04-02T02:21:50.355Z,99447.41
2023-04-02T02:22:21.900Z,99443.56
2023-04-02T02:22:53.379Z,99458.31
2023-04-02T02:23:24.814Z,99459.94
2023-04-02T02:23:56.246Z,99453.66
2023-04-02T02:24:27.695Z,99455.28
2023-04-02T02:24:59.178Z,99458.63
2023-04-02T02:25:30.590Z,99465.38
2023-04-02T02:26:02.060Z,99461.03
2023-04-02T02:26:33.510Z,99459.13
2023-04-02T02:27:04.970Z,99465.69
2023-04-02T02:27:39.455Z,99469.22
2023-04-02T02:28:10.942Z,99464.56
2023-04-02T02:28:42.407Z,99468.41
2023-04-02T02:29:13.857Z,99470.31
2023-04-02T02:29:45.313Z,99470.84
2023-04-02T02:30:19.673Z,99467.31
2023-04-02T02:30:51.207Z,99472.44
2023-04-02T02:31:22.817Z,99477.41
2023-04-02T02:31:54.386Z,99465.69
2023-04-02T02:32:25.914Z,99477.69
2023-04-02T02:32:57.427Z,99473.06
2023-04-02T02:33:28.897Z,99481.53
2023-04-02T02:34:00.356Z,99479.63
2023-04-02T02:34:31.786Z,99481.53
2023-04-02T02:35:03.222Z,99478.50
2023-04-02T02:35:40.579Z,99480.13
2023-04-02T02:36:12.062Z,99485.28
2023-04-02T02:36:43.572Z,99485.28
2023-04-02T02:37:15.022Z,99491.03
2023-04-02T02:37:46.481Z,99487.19
2023-04-02T02:38:17.955Z,99490.22
2023-04-02T02:38:49.410Z,99483.66
2023-04-02T02:39:20.846Z,99484.97
2023-04-02T02:39:52.287Z,99486.38
2023-04-02T02:40:23.731Z,99492.34
2023-04-02T02:40:55.225Z,99488.81
2023-04-02T02:41:26.656Z,99494.28
2023-04-02T02:41:58.069Z,99491.84
2023-04-02T02:42:29.495Z,99490.22
2023-04-02T02:43:04.002Z,99505.97
2023-04-02T02:43:35.437Z,99493.47
2023-04-02T02:44:06.896Z,99498.91
2023-04-02T02:44:38.347Z,99506.78
2023-04-02T02:45:09.849Z,99498.91
2023-04-02T02:45:41.280Z,99495.88
2023-04-02T02:46:12.855Z,99503.25
2023-04-02T02:46:44.329Z,99502.44
2023-04-02T02:47:15.808Z,99503.56
2023-04-02T02:47:47.365Z,99501.63
2023-04-02T02:48:18.786Z,99500.03
2023-04-02T02:48:50.309Z,99503.56
2023-04-02T02:49:21.772Z,99500.81
2023-04-02T02:49:54.911Z,99509.81
2023-04-02T02:50:26.504Z,99509.81
2023-04-02T02:50:57.999Z,99507.91
2023-04-02T02:51:29.554Z,99510.13
2023-04-02T02:52:01.030Z,99508.19
2023-04-02T02:52:32.526Z,99512.84
2023-04-02T02:53:06.996Z,99516.88
2023-04-02T02:53:38.520Z,99512.03
2023-04-02T02:54:09.915Z,99512.34
2023-04-02T02:54:41.326Z,99516.88
2023-04-02T02:55:12.741Z,99517.19
2023-04-02T02:55:44.198Z,99510.41
2023-04-02T02:56:15.637Z,99519.91
2023-04-02T02:56:47.116Z,99515.78
2023-04-02T02:57:18.648Z,99516.69
2023-04-02T02:57:50.155Z,99528.38
2023-04-02T02:58:21.577Z,99527.06
2023-04-02T02:58:53.017Z,99522.63
2023-04-02T02:59:24.494Z,99530.00
2023-04-02T02:59:55.946Z,99527.59
2023-04-02T03:00:27.412Z,99530.00
2023-04-02T03:00:58.966Z,99532.75
2023-04-02T03:01:30.595Z,99534.94
2023-04-02T03:02:02.028Z,99528.38
2023-04-02T03:02:33.511Z,99528.38
2023-04-02T03:03:10.405Z,99532.75
2023-04-02T03:03:45.201Z,99534.34
2023-04-02T03:04:17.022Z,99533.84
2023-04-02T03:04:48.533Z,99533.84
2023-04-02T03:05:20.040Z,99543.34
2023-04-02T03:05:51.633Z,99535.75
2023-04-02T03:06:23.148Z,99537.69
2023-04-02T03:06:54.580Z,99545.84
2023-04-02T03:07:29.147Z,99541.72
2023-04-02T03:08:00.570Z,99536.88
2023-04-02T03:08:32.087Z,99544.75
2023-04-02T03:09:03.535Z,99547.47
2023-04-02T03:09:34.939Z,99547.25
2023-04-02T03:10:06.432Z,99550.00
2023-04-02T03:10:37.926Z,99548.88
2023-04-02T03:11:09.421Z,99548.59
2023-04-02T03:11:40.848Z,99545.84
2023-04-02T03:12:12.342Z,99550.22
2023-04-02T03:12:46.702Z,99547.78
2023-04-02T03:13:18.095Z,99551.59
2023-04-02T03:13:49.506Z,99551.81
2023-04-02T03:14:20.924Z,99552.41
2023-04-02T03:14:52.315Z,99558.69
2023-04-02T03:15:23.771Z,99561.72
2023-04-02T03:15:55.301Z,99549.69
2023-04-02T03:16:26.794Z,99557.06
2023-04-02T03:16:58.261Z,99559.78
2023-04-02T03:17:32.791Z,99563.63
2023-04-02T03:18:04.292Z,99560.31
2023-04-02T03:18:35.783Z,99557.88
2023-04-02T03:19:07.237Z,99565.25
2023-04-02T03:19:38.642Z,99557.88
2023-04-02T03:20:10.029Z,99562.00
2023-04-02T03:20:41.496Z,99566.66
2023-04-02T03:21:12.973Z,99568.28
2023-04-02T03:21:44.401Z,99575.63
2023-04-02T03:22:15.878Z,99574.53
2023-04-02T03:22:47.294Z,99566.34
2023-04-02T03:23:19.966Z,99575.63
2023-04-02T03:23:52.069Z,99578.06
2023-04-02T03:24:23.513Z,99576.75
2023-04-02T03:24:55.048Z,99580.28
2023-04-02T03:25:26.513Z,99575.63
2023-04-02T03:25:58.124Z,99581.59
2023-04-02T03:26:29.544Z,99579.16
2023-04-02T03:27:00.953Z,99577.56
2023-04-02T03:27:32.357Z,99580.28
2023-04-02T03:28:03.789Z,99578.66
2023-04-02T03:28:35.270Z,99581.69
2023-04-02T03:29:06.708Z,99578.66
2023-04-02T03:29:38.130Z,99587.88
2023-04-02T03:30:09.595Z,99587.88
2023-04-02T03:30:40.997Z,99587.06
2023-04-02T03:31:12.516Z,99587.88
2023-04-02T03:31:43.973Z,99582.72
2023-04-02T03:32:15.529Z,99588.97
2023-04-02T03:32:46.977Z,99590.59
2023-04-02T03:33:21.510Z,99588.16
2023-04-02T03:33:52.958Z,99591.78
2023-04-02T03:34:26.963Z,99593.41
2023-04-02T03:34:58.404Z,99583.00
2023-04-02T03:35:29.805Z,99602.91
2023-04-02T03:36:01.244Z,99589.28
2023-04-02T03:36:32.793Z,99599.06
2023-04-02T03:37:04.251Z,99600.97
2023-04-02T03:37:35.722Z,99601.78
2023-04-02T03:38:07.211Z,99604.53
2023-04-02T03:38:38.657Z,99603.19
2023-04-02T03:39:10.145Z,99602.91
2023-04-02T03:39:41.595Z,99601.50
2023-04-02T03:40:13.040Z,99611.06
2023-04-02T03:40:44.445Z,99608.06
2023-04-02T03:41:15.952Z,99601.78
2023-04-02T03:41:47.509Z,99611.59
2023-04-02T03:42:19.014Z,99614.03
2023-04-02T03:42:50.412Z,99606.13
2023-04-02T03:43:24.732Z,99610.19
2023-04-02T03:43:56.225Z,99609.88
2023-04-02T03:44:27.680Z,99609.38
2023-04-02T03:44:59.192Z,99612.91
2023-04-02T03:45:30.613Z,99613.22
2023-04-02T03:46:02.156Z,99610.19
2023-04-02T03:46:33.663Z,99613.22
2023-04-02T03:47:05.768Z,99614.81
2023-04-02T03:47:37.358Z,99617.84
2023-04-02T03:48:08.827Z,99617.56
2023-04-02T03:48:40.424Z,99616.75
2023-04-02T03:49:12.011Z,99614.03
2023-04-02T03:49:43.416Z,99617.84
2023-04-02T03:50:14.857Z,99620.06
2023-04-02T03:50:46.343Z,99620.59
2023-04-02T03:51:17.746Z,99627.94
2023-04-02T03:51:49.205Z,99616.75
2023-04-02T03:52:20.794Z,99619.78
2023-04-02T03:52:52.361Z,99626.34
2023-04-02T03:53:23.788Z,99627.44
2023-04-02T03:53:55.259Z,99630.47
2023-04-02T03:54:26.761Z,99630.97
2023-04-02T03:54:58.185Z,99632.38
2023-04-02T03:55:29.697Z,99632.06
2023-04-02T03:56:01.161Z,99631.78
2023-04-02T03:56:32.683Z,99638.03
2023-04-02T03:57:04.094Z,99638.03
2023-04-02T03:57:35.656Z,99640.25
2023-04-02T03:58:07.132Z,99642.69
2023-04-02T03:58:38.801Z,99641.06
2023-04-02T03:59:12.730Z,99638.84
2023-04-02T03:59:44.168Z,99642.97
2023-04-02T04:00:18.876Z,99645.72
2023-04-02T04:00:50.290Z,99647.03
2023-04-02T04:01:21.736Z,99658.75
2023-04-02T04:01:53.162Z,99652.78
2023-04-02T04:02:24.667Z,99647.34
2023-04-02T04:02:56.081Z,99651.16
2023-04-02T04:03:27.551Z,99651.25
2023-04-02T04:03:58.961Z,99657.22
2023-04-02T04:04:30.486Z,99660.44
2023-04-02T04:05:02.078Z,99658.81
2023-04-02T04:05:33.703Z,99665.91
2023-04-02T04:06:05.344Z,99668.09
2023-04-02T04:06:36.845Z,99668.91
2023-04-02T04:07:08.319Z,99668.09
2023-04-02T04:07:39.728Z,99667.81
2023-04-02T04:08:11.169Z,99666.50
2023-04-02T04:08:42.624Z,99673.56
2023-04-02T04:09:14.041Z,99670.53
2023-04-02T04:09:45.559Z,99673.56
2023-04-02T04:10:17.044Z,99675.47
2023-04-02T04:10:48.547Z,99678.19
2023-04-02T04:11:20.023Z,99678.50
2023-04-02T04:11:51.783Z,99682.84
2023-04-02T04:12:23.230Z,99684.47
2023-04-02T04:12:54.660Z,99689.09
2023-04-02T04:13:26.070Z,99684.47
2023-04-02T04:13:57.510Z,99681.44
2023-04-02T04:14:28.971Z,99676.59
2023-04-02T04:15:00.350Z,99688.00
2023-04-02T04:15:31.816Z,99684.47
2023-04-02T04:16:03.218Z,99688.81
2023-04-02T04:16:34.711Z,99688.00
2023-04-02T04:17:09.093Z,99680.94
2023-04-02T04:17:40.528Z,99686.09
2023-04-02T04:18:11.996Z,99688.00
2023-04-02T04:18:43.417Z,99694.84
2023-04-02T04:19:14.894Z,99696.47
2023-04-02T04:19:46.332Z,99697.28
2023-04-02T04:20:17.821Z,99694.56
2023-04-02T04:20:49.290Z,99704.66
2023-04-02T04:21:20.704Z,99703.56
2023-04-02T04:21:52.156Z,99701.94
2023-04-02T04:22:23.637Z,99705.47
2023-04-02T04:22:55.100Z,99709.31
2023-04-02T04:23:26.549Z,99704.44
2023-04-02T04:23:58.080Z,99703.84
2023-04-02T04:24:29.486Z,99706.56
2023-04-02T04:25:00.929Z,99709.31
2023-04-02T04:25:32.357Z,99706.88
2023-04-02T04:26:06.395Z,99713.13
2023-04-02T04:26:37.834Z,99716.38
2023-04-02T04:27:09.298Z,99716.38
2023-04-02T04:27:40.834Z,99713.66
2023-04-02T04:28:12.270Z,99715.56
2023-04-02T04:28:43.732Z,99715.84
2023-04-02T04:29:15.113Z,99713.94
2023-04-02T04:29:48.896Z,99715.25
2023-04-02T04:30:20.358Z,99713.34
2023-04-02T04:30:51.766Z,99714.75
2023-04-02T04:31:25.775Z,99716.38
2023-04-02T04:31:57.597Z,99719.38
2023-04-02T04:32:29.080Z,99719.97
2023-04-02T04:33:00.697Z,99728.69
2023-04-02T04:33:32.217Z,99724.31
2023-04-02T04:34:03.749Z,99725.66
2023-04-02T04:34:35.176Z,99728.69
2023-04-02T04:35:06.662Z,99729.19
2023-04-02T04:35:38.491Z,99729.25
2023-04-02T04:36:10.343Z,99731.41
2023-04-02T04:36:43.539Z,99732.72
2023-04-02T04:37:17.884Z,99735.75
2023-04-02T04:37:49.320Z,99729.78
2023-04-02T04:38:20.889Z,99734.13
2023-04-02T04:38:52.317Z,99733.31
2023-04-02T04:39:23.735Z,99738.47
2023-04-02T04:39:55.197Z,99733.03
2023-04-02T04:40:28.772Z,99729.47
2023-04-02T04:41:00.218Z,99736.56
2023-04-02T04:41:33.493Z,99738.47
2023-04-02T04:42:05.100Z,99744.75
2023-04-02T04:42:36.564Z,99743.94
2023-04-02T04:43:08.075Z,99744.22
2023-04-02T04:43:39.539Z,99741.78
2023-04-02T04:44:10.961Z,99752.91
2023-04-02T04:44:42.403Z,99743.13
2023-04-02T04:45:13.800Z,99751.28
2023-04-02T04:45:45.237Z,99752.91
2023-04-02T04:46:16.745Z,99751.00
2023-04-02T04:46:48.266Z,99756.44
2023-04-02T04:47:19.702Z,99760.00
2023-04-02T04:47:53.705Z,99764.63
2023-04-02T04:48:25.203Z,99754.84
2023-04-02T04:48:56.683Z,99757.56
2023-04-02T04:49:28.148Z,99760.81
2023-04-02T04:49:59.691Z,99763.81
2023-04-02T04:50:31.159Z,99763.00
2023-04-02T04:51:02.637Z,99764.63
2023-04-02T04:51:34.025Z,99764.94
2023-04-02T04:52:05.516Z,99771.47
2023-04-02T04:52:36.982Z,99764.63
2023-04-02T04:53:10.013Z,99771.19
2023-04-02T04:53:41.487Z,99767.34
2023-04-02T04:54:12.968Z,99769.56
2023-04-02T04:54:49.256Z,99771.47
2023-04-02T04:55:20.799Z,99772.81
2023-04-02T04:55:52.254Z,99772.81
2023-04-02T04:56:23.753Z,99784.53
2023-04-02T04:56:55.252Z,99785.13
2023-04-02T04:57:26.854Z,99790.28
2023-04-02T04:57:58.300Z,99778.84
2023-04-02T04:58:29.814Z,99785.13
2023-04-02T04:59:01.247Z,99784.81
2023-04-02T04:59:32.693Z,99786.72
2023-04-02T05:00:07.137Z,99780.75
2023-04-02T05:00:38.577Z,99789.47
2023-04-02T05:01:10.042Z,99787.84
2023-04-02T05:01:41.528Z,99792.47
2023-04-02T05:02:13.060Z,99793.28
2023-04-02T05:02:44.532Z,99793.28
2023-04-02T05:03:15.955Z,99795.50
2023-04-02T05:03:47.423Z,99793.81
2023-04-02T05:04:18.861Z,99794.63
2023-04-02T05:04:50.417Z,99801.19
2023-04-02T05:05:21.925Z,99799.56
2023-04-02T05:05:53.376Z,99800.38
2023-04-02T05:06:24.791Z,99793.28
2023-04-02T05:06:56.328Z,99806.91
2023-04-02T05:07:27.807Z,99807.72
2023-04-02T05:07:59.956Z,99804.47
2023-04-02T05:08:31.577Z,99810.47
2023-04-02T05:09:03.027Z,99805.81
2023-04-02T05:09:34.493Z,99814.81
2023-04-02T05:10:05.917Z,99814.81
2023-04-02T05:10:37.359Z,99813.41
2023-04-02T05:11:08.828Z,99814.81
2023-04-02T05:11:40.274Z,99814.81
2023-04-02T05:12:14.336Z,99818.06
2023-04-02T05:12:45.910Z,99816.44
2023-04-02T05:13:17.365Z,99821.06
2023-04-02T05:13:48.895Z,99815.91
2023-04-02T05:14:20.373Z,99821.34
2023-04-02T05:14:51.882Z,99818.63
2023-04-02T05:15:23.335Z,99818.34
2023-04-02T05:15:54.854Z,99822.19
2023-04-02T05:16:26.408Z,99826.81
2023-04-02T05:16:57.906Z,99825.19
2023-04-02T05:17:29.368Z,99827.63
2023-04-02T05:18:00.964Z,99825.47
2023-04-02T05:18:34.551Z,99824.38
2023-04-02T05:19:06.002Z,99828.22
2023-04-02T05:19:37.422Z,99820.56
2023-04-02T05:20:08.862Z,99836.63
2023-04-02T05:20:42.868Z,99831.47
2023-04-02T05:21:14.325Z,99835.00
2023-04-02T05:21:45.831Z,99843.16
2023-04-02T05:22:20.342Z,99835.28
2023-04-02T05:22:51.789Z,99839.34
2023-04-02T05:23:23.320Z,99838.00
2023-04-02T05:23:54.804Z,99836.91
2023-04-02T05:24:26.259Z,99843.16
2023-04-02T05:24:57.736Z,99844.56
2023-04-02T05:25:29.171Z,99846.78
2023-04-02T05:26:00.600Z,99842.41
2023-04-02T05:26:32.056Z,99843.47
2023-04-02T05:27:03.498Z,99843.75
2023-04-02T05:27:34.929Z,99845.66
2023-04-02T05:28:06.425Z,99851.94
2023-04-02T05:28:37.920Z,99848.69
2023-04-02T05:29:09.328Z,99848.41
2023-04-02T05:29:40.745Z,99860.91
2023-04-02T05:30:12.229Z,99862.25
2023-04-02T05:30:43.920Z,99854.38
2023-04-02T05:31:15.452Z,99852.44
2023-04-02T05:31:46.984Z,99862.25
2023-04-02T05:32:18.417Z,99866.59
2023-04-02T05:32:49.904Z,99865.78
2023-04-02T05:33:21.532Z,99866.09
2023-04-02T05:33:54.879Z,99867.41
2023-04-02T05:34:26.257Z,99865.78
2023-04-02T05:34:57.748Z,99868.22
2023-04-02T05:35:29.236Z,99869.09
2023-04-02T05:36:00.767Z,99878.63
2023-04-02T05:36:32.235Z,99871.81
2023-04-02T05:37:05.782Z,99874.84
2023-04-02T05:37:38.420Z,99876.41
2023-04-02T05:38:09.988Z,99877.50
2023-04-02T05:38:41.371Z,99876.41
2023-04-02T05:39:12.881Z,99872.88
2023-04-02T05:39:44.461Z,99882.97
2023-04-02T05:40:15.942Z,99882.72
2023-04-02T05:40:47.428Z,99884.34
2023-04-02T05:41:18.914Z,99889.00
2023-04-02T05:41:50.430Z,99881.91
2023-04-02T05:42:21.867Z,99890.09
2023-04-02T05:42:58.479Z,99886.78
2023-04-02T05:43:29.885Z,99894.16
2023-04-02T05:44:01.301Z,99889.81
2023-04-02T05:44:36.347Z,99899.59
2023-04-02T05:45:09.371Z,99888.41
2023-04-02T05:45:40.832Z,99898.28
2023-04-02T05:46:12.284Z,99894.16
2023-04-02T05:46:43.852Z,99902.34
2023-04-02T05:47:15.332Z,99900.41
2023-04-02T05:47:46.800Z,99908.59
2023-04-02T05:48:18.287Z,99907.78
2023-04-02T05:48:49.696Z,99907.78
2023-04-02T05:49:21.121Z,99905.88
2023-04-02T05:49:52.716Z,99902.63
2023-04-02T05:50:24.215Z,99904.78
2023-04-02T05:50:55.785Z,99908.31
2023-04-02T05:51:27.228Z,99911.63
2023-04-02T05:52:00.895Z,99905.63
2023-04-02T05:52:32.418Z,99907.78
2023-04-02T05:53:06.840Z,99918.69
2023-04-02T05:53:38.308Z,99912.13
2023-04-02T05:54:09.738Z,99914.88
2023-04-02T05:54:41.167Z,99915.97
2023-04-02T05:55:15.228Z,99919.50
2023-04-02T05:55:46.620Z,99914.63
2023-04-02T05:56:17.987Z,99911.38
2023-04-02T05:56:49.432Z,99918.47
2023-04-02T05:57:23.200Z,99920.09
2023-04-02T05:58:21.182Z,99920.91
2023-04-02T05:58:52.676Z,99919.28
2023-04-02T05:59:24.129Z,99922.22
2023-04-02T05:59:55.564Z,99917.34
2023-04-02T06:00:27.041Z,99920.09
2023-04-02T06:00:58.496Z,99931.00
2023-04-02T06:01:29.982Z,99924.44
2023-04-02T06:02:01.481Z,99923.91
2023-04-02T06:02:33.096Z,99918.16
2023-04-02T06:03:04.748Z,99922.81
2023-04-02T06:03:40.721Z,99927.75
2023-04-02T06:04:12.272Z,99922.81
2023-04-02T06:04:43.745Z,99925.53
2023-04-02T06:05:16.791Z,99924.72
2023-04-02T06:05:48.309Z,99934.81
2023-04-02T06:06:19.780Z,99931.56
2023-04-02T06:06:51.278Z,99925.53
2023-04-02T06:07:24.330Z,99931.81
2023-04-02T06:07:55.867Z,99932.63
2023-04-02T06:08:27.466Z,99932.91
2023-04-02T06:08:58.971Z,99932.63
2023-04-02T06:09:30.478Z,99932.63
2023-04-02T06:10:01.927Z,99931.22
2023-04-02T06:10:33.428Z,99932.31
2023-04-02T06:11:04.891Z,99941.91
2023-04-02T06:11:36.382Z,99936.72
2023-04-02T06:12:07.780Z,99937.53
2023-04-02T06:12:39.238Z,99937.25
2023-04-02T06:13:10.736Z,99931.81
2023-04-02T06:13:42.756Z,99939.16